Time;durP1;ratioP1;P1;durP2;ratioP2;P2;SDS_P1;SDS_P2;PMS_P1;PMS_P2;Temp;Humidity;BMP_temperature;BMP_pressure;BME280_temperature;BME280_humidity;BME280_pressure;Samples;Min_cycle;Max_cycle;Signal;HPM_P1;HPM_P2
2021/03/09 00:02:35;;;;;;;85.30;45.28;;;;;;;1.41;66.50;100797.06;2757150;86;21193;-62
2021/03/09 00:06:39;;;;;;;94.52;47.03;;;;;;;1.46;66.32;100802.13;2785744;85;21614;-62
2021/03/09 00:10:42;;;;;;;94.15;50.17;;;;;;;1.48;65.76;100800.33;2785635;85;21140;-62
2021/03/09 00:14:45;;;;;;;99.35;48.87;;;;;;;1.38;66.45;100805.05;2785892;85;21241;-63
2021/03/09 00:18:50;;;;;;;83.55;49.13;;;;;;;1.36;66.48;100804.22;2795446;84;21154;-62
2021/03/09 00:22:54;;;;;;;75.87;44.73;;;;;;;1.39;66.38;100805.45;2867918;82;21163;-62
2021/03/09 00:26:57;;;;;;;84.58;44.63;;;;;;;1.33;65.83;100812.19;2867613;82;21128;-62
2021/03/09 00:31:00;;;;;;;82.53;46.35;;;;;;;1.18;66.41;100806.59;2867556;82;21157;-62
2021/03/09 00:35:05;;;;;;;87.82;46.77;;;;;;;1.17;66.56;100802.23;2867623;82;21441;-62
2021/03/09 00:39:08;;;;;;;81.97;48.83;;;;;;;1.09;66.54;100810.38;2813218;84;21175;-63
2021/03/09 00:43:11;;;;;;;76.22;44.88;;;;;;;1.09;67.00;100811.69;2813342;84;21198;-62
2021/03/09 00:47:15;;;;;;;67.78;41.10;;;;;;;1.01;66.96;100814.17;2813654;84;21174;-62
2021/03/09 00:51:19;;;;;;;84.75;42.30;;;;;;;0.96;67.35;100809.91;2813402;84;21174;-62
2021/03/09 00:55:22;;;;;;;72.05;43.63;;;;;;;0.87;67.50;100812.86;2813043;84;21190;-62
2021/03/09 00:59:25;;;;;;;74.85;44.27;;;;;;;0.75;67.87;100810.63;2812139;84;21162;-63
2021/03/09 01:03:28;;;;;;;83.03;45.75;;;;;;;0.65;68.10;100804.39;2811893;84;21170;-62
2021/03/09 01:07:31;;;;;;;73.60;42.67;;;;;;;0.74;68.34;100795.81;2812145;84;21476;-63
2021/03/09 01:11:34;;;;;;;69.95;42.13;;;;;;;0.86;67.94;100787.57;2812261;84;21609;-63
2021/03/09 01:15:38;;;;;;;79.07;44.80;;;;;;;0.95;67.38;100792.95;2812350;84;21150;-63
2021/03/09 01:19:42;;;;;;;82.12;42.98;;;;;;;0.92;66.73;100788.66;2812341;84;21139;-62
2021/03/09 01:23:46;;;;;;;76.37;39.42;;;;;;;0.83;67.28;100785.06;2812241;84;21178;-62
2021/03/09 01:27:50;;;;;;;74.17;40.65;;;;;;;0.77;67.40;100772.14;2812648;84;21194;-62
2021/03/09 01:31:53;;;;;;;72.70;40.17;;;;;;;0.84;67.74;100774.98;2812576;84;21194;-62
2021/03/09 01:35:56;;;;;;;79.80;42.35;;;;;;;0.90;67.36;100764.28;2816404;84;21138;-62
2021/03/09 01:39:59;;;;;;;72.15;40.55;;;;;;;0.89;67.23;100766.50;2820162;84;21176;-62
2021/03/09 01:44:05;;;;;;;81.40;55.12;;;;;;;0.91;67.06;100769.09;2817787;84;21621;-63
2021/03/09 01:48:09;;;;;;;81.20;46.58;;;;;;;0.80;67.32;100761.12;2816744;84;21190;-62
2021/03/09 01:52:12;;;;;;;79.62;41.98;;;;;;;0.80;67.33;100758.97;2814616;84;21181;-62
2021/03/09 01:56:15;;;;;;;72.90;40.65;;;;;;;0.73;67.01;100748.28;2816906;84;21169;-63
2021/03/09 02:00:21;;;;;;;68.33;39.80;;;;;;;0.66;66.83;100747.19;2817093;84;21202;-62
2021/03/09 02:04:25;;;;;;;67.12;37.65;;;;;;;0.63;66.76;100745.11;2817008;84;21134;-62
2021/03/09 02:08:28;;;;;;;61.40;39.08;;;;;;;0.58;66.68;100741.80;2816889;84;21616;-62
2021/03/09 02:13:13;;;;;;;59.50;38.30;;;;;;;0.57;67.05;100735.69;2816731;84;21173;-62
2021/03/09 02:17:24;;;;;;;73.57;40.78;;;;;;;0.52;66.62;100716.67;2816638;84;21161;-62
2021/03/09 02:21:52;;;;;;;72.22;39.98;;;;;;;0.65;66.55;100732.38;2816503;84;21162;-63
2021/03/09 02:26:18;;;;;;;71.05;40.78;;;;;;;0.73;67.03;100736.49;2817054;84;21174;-62
2021/03/09 02:30:33;;;;;;;76.28;38.28;;;;;;;0.63;66.32;100737.25;2816700;84;21142;-62
2021/03/09 02:34:43;;;;;;;77.82;41.48;;;;;;;0.50;66.42;100732.44;2817086;84;21201;-62
2021/03/09 02:39:10;;;;;;;61.75;36.65;;;;;;;0.52;67.21;100734.99;2816648;84;21580;-62
2021/03/09 02:43:17;;;;;;;74.37;42.50;;;;;;;0.55;67.34;100734.45;2816648;84;21139;-62
2021/03/09 02:47:22;;;;;;;71.60;40.00;;;;;;;0.67;67.59;100737.11;2818126;84;21138;-62
2021/03/09 02:51:57;;;;;;;64.97;36.85;;;;;;;0.59;67.11;100718.20;2818195;84;21182;-63
2021/03/09 02:56:04;;;;;;;59.48;33.95;;;;;;;0.52;67.05;100700.96;2818073;84;21150;-62
2021/03/09 03:00:44;;;;;;;51.53;30.97;;;;;;;0.52;67.05;100700.96;2818204;84;21150;-62
2021/03/09 03:04:50;;;;;;;63.48;32.67;;;;;;;0.64;66.46;100720.20;2818077;84;21130;-62
2021/03/09 03:08:56;;;;;;;59.63;32.50;;;;;;;0.49;66.31;100697.14;2818450;84;21107;-62
2021/03/09 03:13:31;;;;;;;62.65;26.07;;;;;;;0.63;67.04;100717.18;2818179;84;21600;-62
2021/03/09 03:17:35;;;;;;;44.77;27.75;;;;;;;0.65;66.62;100721.03;2817874;84;21123;-63
2021/03/09 03:22:15;;;;;;;46.35;29.40;;;;;;;0.55;66.39;100702.16;2818327;84;21102;-61
2021/03/09 03:26:22;;;;;;;48.25;26.65;;;;;;;0.55;66.39;100702.16;2819257;84;21154;-62
2021/03/09 03:31:03;;;;;;;51.00;31.93;;;;;;;0.58;66.48;100711.22;2835470;84;21162;-62
2021/03/09 03:35:29;;;;;;;58.83;29.90;;;;;;;0.63;66.96;100718.48;2835812;84;21178;-63
2021/03/09 03:39:33;;;;;;;49.77;35.40;;;;;;;0.54;67.45;100699.14;2766644;86;21157;-62
2021/03/09 03:43:37;;;;;;;85.38;52.33;;;;;;;0.71;67.76;100720.38;2766515;86;21145;-63
2021/03/09 03:47:41;;;;;;;55.20;33.85;;;;;;;0.77;67.93;100727.63;2764347;86;21195;-62
2021/03/09 03:51:50;;;;;;;64.10;34.43;;;;;;;0.83;67.50;100729.58;2716613;87;21157;-62
2021/03/09 03:56:10;;;;;;;66.77;37.60;;;;;;;0.90;67.63;100728.92;2717257;86;21192;-62
2021/03/09 04:00:17;;;;;;;67.42;38.38;;;;;;;0.91;67.61;100714.91;2753681;86;21132;-62
2021/03/09 04:04:25;;;;;;;64.77;36.23;;;;;;;0.92;66.76;100719.72;2764115;84;21614;-63
2021/03/09 04:08:29;;;;;;;67.32;38.70;;;;;;;0.80;66.76;100717.06;2765546;85;21188;-62
2021/03/09 04:12:35;;;;;;;74.12;37.33;;;;;;;0.77;67.70;100705.36;2739088;86;21575;-64
2021/03/09 04:16:40;;;;;;;55.70;37.25;;;;;;;0.85;67.65;100713.36;2811733;84;21141;-63
2021/03/09 04:20:44;;;;;;;62.55;37.98;;;;;;;0.91;66.95;100721.47;2810065;84;21193;-63
2021/03/09 04:24:51;;;;;;;68.67;38.77;;;;;;;0.88;66.09;100720.27;2740694;86;21150;-63
2021/03/09 04:28:55;;;;;;;58.92;35.68;;;;;;;0.82;66.21;100716.56;2761559;85;21410;-62
2021/03/09 04:33:02;;;;;;;61.88;37.10;;;;;;;0.80;66.46;100718.37;2737813;87;21180;-62
2021/03/09 04:37:05;;;;;;;57.27;33.45;;;;;;;0.79;66.38;100716.20;2810050;84;21200;-63
2021/03/09 04:41:12;;;;;;;64.95;34.73;;;;;;;0.69;66.25;100716.96;2810705;84;21185;-63
2021/03/09 04:45:15;;;;;;;56.65;35.35;;;;;;;0.63;66.31;100708.45;2810916;83;21157;-64
2021/03/09 04:49:19;;;;;;;51.08;34.10;;;;;;;0.58;66.06;100716.92;2810912;84;21608;-64
2021/03/09 04:53:23;;;;;;;55.88;34.25;;;;;;;0.33;66.24;100715.95;2723396;86;21195;-63
2021/03/09 04:57:38;;;;;;;54.95;32.13;;;;;;;0.19;67.27;100714.23;2764539;84;21633;-63
2021/03/09 05:01:42;;;;;;;52.13;30.37;;;;;;;0.22;68.16;100719.39;2764488;86;21163;-63
2021/03/09 05:05:45;;;;;;;62.93;35.92;;;;;;;0.35;68.21;100715.92;2764642;86;21132;-63
2021/03/09 05:09:49;;;;;;;69.55;36.03;;;;;;;0.39;67.93;100713.16;2764512;85;21156;-63
2021/03/09 05:13:57;;;;;;;59.42;35.40;;;;;;;0.45;67.52;100721.72;2711907;87;21616;-63
2021/03/09 05:18:01;;;;;;;52.62;32.25;;;;;;;0.41;67.42;100719.20;2764521;85;21647;-64
2021/03/09 05:22:05;;;;;;;59.10;34.63;;;;;;;0.41;67.42;100719.20;2764249;86;21164;-64
2021/03/09 05:26:08;;;;;;;53.68;30.92;;;;;;;0.34;67.78;100716.36;2764330;86;21606;-61
2021/03/09 05:30:14;;;;;;;58.42;32.20;;;;;;;0.42;68.44;100718.30;2764280;86;21602;-63
2021/03/09 05:34:18;;;;;;;48.55;32.40;;;;;;;0.50;67.84;100719.79;2711840;87;21738;-63
2021/03/09 05:38:21;;;;;;;58.85;35.08;;;;;;;0.46;68.39;100709.03;2792492;84;21656;-64
2021/03/09 05:42:24;;;;;;;65.10;34.83;;;;;;;0.67;68.58;100721.40;2827918;83;21161;-63
2021/03/09 05:46:29;;;;;;;58.35;36.38;;;;;;;0.65;67.96;100723.22;2859337;81;21198;-63
2021/03/09 05:50:33;;;;;;;54.05;33.15;;;;;;;0.36;68.79;100708.00;2838597;83;21153;-65
2021/03/09 05:54:36;;;;;;;53.35;31.82;;;;;;;0.36;68.79;100708.00;2858046;83;21157;-62
2021/03/09 05:58:39;;;;;;;61.95;34.43;;;;;;;0.63;70.14;100718.48;2769046;84;21619;-62
2021/03/09 06:02:43;;;;;;;56.18;34.38;;;;;;;0.81;69.86;100720.09;2739918;86;21154;-62
2021/03/09 06:06:46;;;;;;;45.95;30.85;;;;;;;0.99;69.45;100720.77;2811878;84;21144;-65
2021/03/09 06:10:50;;;;;;;53.35;34.78;;;;;;;1.10;69.65;100719.52;2811800;84;21602;-63
2021/03/09 06:15:04;;;;;;;47.55;33.45;;;;;;;1.20;69.81;100716.98;2839043;83;21160;-62
2021/03/09 06:19:07;;;;;;;57.05;34.73;;;;;;;1.45;70.14;100727.88;2810113;84;21579;-64
2021/03/09 06:23:10;;;;;;;57.27;35.78;;;;;;;1.56;70.07;100716.52;2810222;84;21125;-63
2021/03/09 06:27:28;;;;;;;60.60;35.65;;;;;;;1.83;69.39;100736.08;2786198;85;21172;-63
2021/03/09 06:31:31;;;;;;;60.55;35.45;;;;;;;1.98;69.53;100735.09;2810336;84;21148;-63
2021/03/09 06:35:41;;;;;;;60.52;36.45;;;;;;;2.05;68.99;100741.80;2810502;84;21164;-63
2021/03/09 06:39:55;;;;;;;66.00;38.23;;;;;;;2.10;68.43;100737.70;2785326;85;21586;-64
2021/03/09 06:44:03;;;;;;;62.03;37.38;;;;;;;2.13;67.67;100742.34;2810480;84;21623;-64
2021/03/09 06:48:20;;;;;;;66.70;41.40;;;;;;;2.08;67.66;100745.62;2810552;84;21141;-64
2021/03/09 06:52:24;;;;;;;71.85;43.42;;;;;;;2.16;67.94;100748.39;2785814;85;21160;-63
2021/03/09 06:56:28;;;;;;;69.72;37.80;;;;;;;2.39;68.53;100749.66;2859660;83;21125;-64
2021/03/09 07:00:31;;;;;;;60.38;35.85;;;;;;;2.49;67.25;100751.91;2859761;83;21201;-64
2021/03/09 07:04:40;;;;;;;49.85;33.10;;;;;;;2.54;66.94;100755.19;2859176;83;21164;-63
2021/03/09 07:08:44;;;;;;;65.55;37.55;;;;;;;2.51;66.69;100750.06;2859491;83;21185;-64
2021/03/09 07:12:49;;;;;;;71.50;35.80;;;;;;;2.29;66.86;100750.94;2859803;83;21619;-64
2021/03/09 07:16:54;;;;;;;58.85;37.25;;;;;;;2.46;67.83;100754.66;2859780;83;21144;-65
2021/03/09 07:20:57;;;;;;;54.18;35.03;;;;;;;2.63;67.10;100762.71;2859874;83;21551;-63
2021/03/09 07:25:16;;;;;;;60.08;34.15;;;;;;;2.66;66.26;100755.17;2859777;83;21169;-64
2021/03/09 07:29:22;;;;;;;58.30;31.97;;;;;;;2.55;67.28;100756.90;2817360;83;21135;-65
2021/03/09 07:33:25;;;;;;;41.58;25.15;;;;;;;2.73;66.64;100754.44;2786873;84;21155;-63
2021/03/09 07:37:29;;;;;;;36.83;22.50;;;;;;;2.85;65.17;100751.30;2827371;83;21140;-64
2021/03/09 07:41:35;;;;;;;39.50;23.75;;;;;;;2.87;64.33;100752.09;2813428;84;21185;-64
2021/03/09 07:45:43;;;;;;;48.78;24.18;;;;;;;3.08;64.35;100749.46;2776936;84;21164;-64
2021/03/09 07:49:47;;;;;;;31.87;18.77;;;;;;;3.24;63.67;100757.53;2767041;85;21128;-64
2021/03/09 07:54:11;;;;;;;39.63;22.52;;;;;;;3.44;62.21;100748.78;2767302;86;21200;-63
2021/03/09 07:58:22;;;;;;;28.65;19.48;;;;;;;3.50;62.50;100753.75;2766542;86;21764;-64
2021/03/09 08:02:40;;;;;;;34.85;21.73;;;;;;;3.59;61.33;100743.28;2766633;86;21148;-64
2021/03/09 08:06:46;;;;;;;39.18;21.45;;;;;;;3.68;62.75;100745.95;2766392;85;21148;-65
2021/03/09 08:10:50;;;;;;;36.77;24.40;;;;;;;3.99;62.79;100748.02;2766459;86;21168;-64
2021/03/09 08:14:55;;;;;;;30.15;16.00;;;;;;;4.24;62.70;100743.38;2766296;86;21179;-65
2021/03/09 08:19:01;;;;;;;;;;;;;;;4.41;60.91;100739.91;2805969;84;21157;-65
2021/03/09 08:23:04;;;;;;;32.58;22.37;;;;;;;4.68;61.40;100736.38;2813351;83;20163;-65
2021/03/09 08:27:36;;;;;;;36.73;20.05;;;;;;;5.00;60.52;100741.81;2813401;84;21620;-63
2021/03/09 08:31:38;;;;;;;39.23;24.12;;;;;;;5.23;60.84;100739.77;2813328;84;21160;-64
2021/03/09 08:35:42;;;;;;;33.00;22.58;;;;;;;5.29;60.66;100732.84;2813203;84;21169;-65
2021/03/09 08:40:09;;;;;;;23.85;16.42;;;;;;;5.58;60.49;100733.09;2813454;84;21113;-65
2021/03/09 08:44:19;;;;;;;25.23;16.52;;;;;;;5.74;60.12;100728.77;2813036;84;33607;-65
2021/03/09 08:48:48;;;;;;;34.10;18.82;;;;;;;5.94;58.54;100735.12;2813489;84;21165;-65
2021/03/09 08:52:59;;;;;;;26.80;15.98;;;;;;;5.95;57.47;100730.70;2997013;77;22648;-64
2021/03/09 08:57:06;;;;;;;22.87;15.75;;;;;;;5.90;57.74;100728.31;2915465;80;21772;-63
2021/03/09 09:01:09;;;;;;;25.12;15.78;;;;;;;5.93;57.28;100720.70;2904709;82;22081;-62
2021/03/09 09:05:13;;;;;;;45.40;23.87;;;;;;;5.93;57.42;100715.42;2904696;82;21141;-62
2021/03/09 09:09:39;;;;;;;29.87;18.55;;;;;;;6.10;57.22;100720.64;2904704;81;21173;-62
2021/03/09 09:13:41;;;;;;;29.82;18.80;;;;;;;6.19;55.29;100721.92;2904487;82;21579;-62
2021/03/09 09:17:55;;;;;;;41.68;22.42;;;;;;;6.19;54.83;100710.48;2904490;81;21587;-63
2021/03/09 09:21:59;;;;;;;41.65;24.20;;;;;;;6.13;54.77;100705.94;2902319;82;21141;-63
2021/03/09 09:26:03;;;;;;;30.70;16.05;;;;;;;6.07;54.80;100706.75;2904584;81;21144;-63
2021/03/09 09:30:10;;;;;;;31.37;15.50;;;;;;;6.08;54.71;100705.81;2904533;82;21105;-63
2021/03/09 09:34:13;;;;;;;25.80;14.15;;;;;;;6.07;53.20;100704.11;2904495;82;21133;-62
2021/03/09 09:38:19;;;;;;;61.33;34.67;;;;;;;6.12;53.40;100702.92;2904340;82;21189;-62
2021/03/09 09:42:22;;;;;;;47.95;29.57;;;;;;;6.23;52.60;100700.98;2922239;79;21120;-65
2021/03/09 09:46:28;;;;;;;176.78;95.17;;;;;;;6.31;52.40;100695.72;2898013;81;21978;-64
2021/03/09 09:50:33;;;;;;;69.65;40.00;;;;;;;6.45;52.64;100698.88;2914413;80;21814;-65
2021/03/09 09:54:36;;;;;;;67.00;40.48;;;;;;;6.63;52.56;100691.20;2952082;80;21149;-64
2021/03/09 09:58:49;;;;;;;43.92;20.92;;;;;;;6.68;52.14;100689.16;2950320;80;21142;-66
2021/03/09 10:03:15;;;;;;;42.27;29.80;;;;;;;6.62;51.73;100690.82;2947332;80;21145;-66
2021/03/09 10:07:23;;;;;;;22.58;16.02;;;;;;;6.57;51.51;100694.22;2947545;80;21146;-64
2021/03/09 10:11:26;;;;;;;17.50;11.15;;;;;;;6.53;51.50;100699.30;2947079;80;21622;-63
2021/03/09 10:15:49;;;;;;;23.77;14.58;;;;;;;6.48;50.71;100692.95;2947049;80;21130;-65
2021/03/09 10:19:54;;;;;;;27.30;16.80;;;;;;;6.53;51.14;100696.17;2947064;80;21169;-65
2021/03/09 10:24:01;;;;;;;17.23;11.22;;;;;;;6.61;50.27;100693.09;2946945;80;21169;-66
2021/03/09 10:28:05;;;;;;;12.35;9.53;;;;;;;6.61;49.44;100692.25;2946948;80;21130;-66
2021/03/09 10:32:15;;;;;;;16.30;10.40;;;;;;;6.80;49.93;100693.32;2946902;80;21519;-65
2021/03/09 10:36:19;;;;;;;16.87;10.00;;;;;;;6.96;48.93;100696.75;2946907;80;21133;-67
2021/03/09 10:40:26;;;;;;;18.25;11.30;;;;;;;7.00;48.08;100692.97;2947009;80;21599;-67
2021/03/09 10:44:35;;;;;;;17.00;10.35;;;;;;;7.03;47.48;100689.76;2946105;79;21153;-67
2021/03/09 10:48:41;;;;;;;13.80;8.98;;;;;;;7.18;47.98;100688.83;2947275;80;21145;-65
2021/03/09 10:52:44;;;;;;;13.53;9.18;;;;;;;7.26;47.42;100687.87;2950665;80;21153;-65
2021/03/09 10:56:49;;;;;;;11.40;7.75;;;;;;;7.45;46.31;100688.06;2952194;80;21600;-66
2021/03/09 11:00:52;;;;;;;14.50;6.85;;;;;;;7.61;45.72;100687.11;2952245;80;21730;-66
2021/03/09 11:04:55;;;;;;;8.80;6.58;;;;;;;7.74;44.82;100674.80;2951989;80;22223;-66
2021/03/09 11:08:58;;;;;;;10.68;6.95;;;;;;;7.77;44.09;100675.92;2951888;80;22217;-66
2021/03/09 11:13:01;;;;;;;9.38;6.42;;;;;;;7.76;43.14;100670.25;2952366;80;21153;-67
2021/03/09 11:17:04;;;;;;;7.12;5.65;;;;;;;7.86;43.86;100671.84;2952202;80;21450;-66
2021/03/09 11:21:08;;;;;;;9.43;6.17;;;;;;;7.96;43.05;100655.73;2952248;80;21154;-65
2021/03/09 11:25:12;;;;;;;7.85;6.17;;;;;;;8.06;42.15;100652.02;2952511;80;21185;-64
2021/03/09 11:29:15;;;;;;;9.33;6.35;;;;;;;8.04;42.24;100653.05;2952040;80;21177;-66
2021/03/09 11:33:55;;;;;;;8.75;5.72;;;;;;;8.16;42.40;100642.98;2952276;80;21153;-66
2021/03/09 11:38:09;;;;;;;11.03;7.65;;;;;;;8.18;42.45;100642.86;2952277;80;21571;-67
2021/03/09 11:42:12;;;;;;;6.80;4.97;;;;;;;8.11;42.23;100646.39;2952667;80;21130;-67
2021/03/09 11:46:16;;;;;;;11.25;6.95;;;;;;;8.18;41.93;100635.78;2951911;79;21778;-66
2021/03/09 11:50:19;;;;;;;52.38;25.57;;;;;;;8.23;41.75;100634.13;2951998;80;21611;-66
2021/03/09 11:54:22;;;;;;;113.97;43.28;;;;;;;8.13;40.81;100629.45;2951802;80;21165;-65
2021/03/09 11:58:26;;;;;;;59.73;21.77;;;;;;;7.94;41.30;100627.63;2952214;80;21129;-65
2021/03/09 12:02:29;;;;;;;19.45;8.85;;;;;;;7.61;41.27;100615.63;2952332;80;21512;-65
2021/03/09 12:06:33;;;;;;;6.03;4.40;;;;;;;7.51;43.01;100620.66;2951853;80;21121;-67
2021/03/09 12:10:36;;;;;;;6.35;5.22;;;;;;;7.41;42.51;100611.99;2951955;80;21533;-66
2021/03/09 12:14:39;;;;;;;8.98;5.42;;;;;;;7.47;42.57;100609.44;2951784;80;21162;-64
2021/03/09 12:18:43;;;;;;;9.53;6.45;;;;;;;7.61;43.02;100605.03;2951963;80;21106;-66
2021/03/09 12:22:47;;;;;;;13.83;8.90;;;;;;;7.70;42.43;100597.34;2951924;80;21427;-66
2021/03/09 12:26:50;;;;;;;15.48;6.83;;;;;;;7.85;42.02;100586.70;2952100;80;21149;-66
2021/03/09 12:30:52;;;;;;;26.35;16.20;;;;;;;8.03;41.58;100588.60;2951887;80;21580;-66
2021/03/09 12:34:55;;;;;;;11.55;7.55;;;;;;;8.11;40.98;100580.14;2952303;80;21145;-66
2021/03/09 12:38:58;;;;;;;9.20;5.35;;;;;;;8.10;41.76;100574.02;2952511;80;21145;-66
2021/03/09 12:43:05;;;;;;;18.82;10.72;;;;;;;8.12;41.75;100573.89;2952035;80;21170;-67
2021/03/09 12:47:08;;;;;;;10.58;6.60;;;;;;;8.09;42.48;100570.99;2952031;79;21157;-67
2021/03/09 12:51:11;;;;;;;8.50;5.47;;;;;;;7.94;42.22;100559.59;2951169;80;21149;-66
2021/03/09 12:55:14;;;;;;;45.00;19.57;;;;;;;7.97;42.44;100558.55;2946760;80;21117;-65
2021/03/09 12:59:19;;;;;;;25.62;13.78;;;;;;;8.11;42.10;100555.84;2947288;80;21432;-65
2021/03/09 13:03:22;;;;;;;25.65;13.98;;;;;;;8.15;41.23;100542.75;2946862;80;21730;-66
2021/03/09 13:07:26;;;;;;;8.70;7.75;;;;;;;8.09;40.73;100541.84;2947306;80;21162;-67
2021/03/09 13:11:30;;;;;;;9.10;6.20;;;;;;;8.04;40.18;100541.28;2946713;80;21153;-65
2021/03/09 13:15:34;;;;;;;10.88;8.05;;;;;;;8.09;41.99;100531.70;2946687;80;21134;-64
2021/03/09 13:19:37;;;;;;;5.67;4.12;;;;;;;8.19;41.46;100539.42;2946943;80;21588;-65
2021/03/09 13:23:42;;;;;;;12.15;5.17;;;;;;;8.31;41.80;100535.55;2947093;80;21117;-67
2021/03/09 13:27:45;;;;;;;6.17;5.25;;;;;;;8.40;40.54;100534.44;2947593;80;21117;-67
2021/03/09 13:31:50;;;;;;;3.55;2.85;;;;;;;8.53;40.70;100527.84;2947018;80;21571;-66
2021/03/09 13:35:55;;;;;;;5.58;3.87;;;;;;;8.62;40.70;100526.34;2946755;80;21595;-65
2021/03/09 13:39:58;;;;;;;5.40;3.58;;;;;;;8.43;38.40;100524.94;2947268;80;21161;-64
2021/03/09 13:44:01;;;;;;;6.08;3.42;;;;;;;8.27;38.49;100520.35;2947175;80;21193;-66
2021/03/09 13:48:06;;;;;;;11.22;4.90;;;;;;;8.36;38.49;100517.05;2947237;79;21130;-66
2021/03/09 13:52:09;;;;;;;7.42;4.70;;;;;;;8.49;39.07;100521.02;2948939;80;21157;-66
2021/03/09 13:56:14;;;;;;;12.00;8.03;;;;;;;8.60;39.53;100519.48;2913432;80;21137;-62
2021/03/09 14:00:18;;;;;;;8.35;4.58;;;;;;;8.82;38.00;100524.96;2908299;81;21145;-62
2021/03/09 14:04:23;;;;;;;10.40;6.92;;;;;;;8.85;37.51;100513.30;2908063;81;21157;-62
2021/03/09 14:08:25;;;;;;;7.42;4.37;;;;;;;8.96;38.30;100509.38;2874608;80;21137;-63
2021/03/09 14:12:29;;;;;;;16.95;8.25;;;;;;;8.99;38.55;100510.98;2920575;80;21149;-62
2021/03/09 14:16:32;;;;;;;8.05;5.45;;;;;;;9.09;38.71;100506.69;2919364;80;21495;-62
2021/03/09 14:20:35;;;;;;;14.90;8.88;;;;;;;9.02;38.75;100508.56;2908237;81;21164;-63
2021/03/09 14:24:39;;;;;;;10.65;5.92;;;;;;;8.92;38.59;100502.61;2908606;81;21602;-63
2021/03/09 14:28:42;;;;;;;7.90;4.72;;;;;;;8.74;37.59;100497.28;2908111;80;21171;-64
2021/03/09 14:32:48;;;;;;;6.85;5.78;;;;;;;8.64;37.57;100496.59;2908372;81;21124;-62
2021/03/09 14:36:52;;;;;;;8.93;5.75;;;;;;;8.77;38.90;100490.43;2908455;81;21183;-62
2021/03/09 14:40:55;;;;;;;9.20;4.85;;;;;;;8.92;38.71;100488.48;2908183;81;21602;-63
2021/03/09 14:44:58;;;;;;;5.60;4.58;;;;;;;9.04;38.37;100494.23;2908585;81;21136;-62
2021/03/09 14:49:01;;;;;;;9.03;4.80;;;;;;;9.10;37.52;100488.97;2909892;81;21511;-63
2021/03/09 14:57:40;;;;;;;10.75;6.28;;;;;;;8.88;37.72;100482.56;2753810;86;21131;-62
2021/03/09 15:02:18;;;;;;;7.97;5.28;;;;;;;8.63;38.43;100484.29;2777391;85;21105;-63
2021/03/09 15:06:21;;;;;;;8.73;5.78;;;;;;;8.62;38.68;100479.94;2753801;86;21613;-62
2021/03/09 15:11:02;;;;;;;9.40;5.33;;;;;;;8.54;38.87;100482.30;2777520;85;21101;-62
2021/03/09 15:15:08;;;;;;;8.78;5.47;;;;;;;8.37;39.05;100475.51;2753768;86;21419;-62
2021/03/09 15:19:10;;;;;;;11.80;7.85;;;;;;;8.23;38.65;100466.70;2777408;85;21117;-61
2021/03/09 15:23:16;;;;;;;5.87;4.85;;;;;;;7.99;39.76;100466.11;2753985;86;21106;-61
2021/03/09 15:27:21;;;;;;;17.37;9.48;;;;;;;7.89;39.81;100467.68;2789399;83;21129;-62
2021/03/09 15:31:57;;;;;;;31.42;16.40;;;;;;;7.89;39.85;100466.36;2824188;84;21148;-62
2021/03/09 15:36:01;;;;;;;20.05;11.00;;;;;;;7.86;40.34;100463.92;2791515;85;21564;-61
2021/03/09 15:40:39;;;;;;;16.30;8.13;;;;;;;7.78;39.92;100463.11;2878737;82;21102;-62
2021/03/09 15:44:42;;;;;;;25.77;17.02;;;;;;;7.72;40.36;100464.86;2891886;80;21736;-62
2021/03/09 15:48:47;;;;;;;22.50;14.60;;;;;;;7.62;40.85;100466.41;2910985;81;21621;-62
2021/03/09 15:52:52;;;;;;;14.50;12.23;;;;;;;7.58;41.66;100466.62;2911367;81;21186;-62
2021/03/09 15:56:55;;;;;;;20.15;15.58;;;;;;;7.54;42.20;100465.13;2914977;81;21138;-60
2021/03/09 16:00:58;;;;;;;14.95;9.40;;;;;;;7.51;43.15;100463.16;2914247;81;21170;-61
2021/03/09 16:05:01;;;;;;;17.35;9.58;;;;;;;7.38;43.12;100460.47;2914264;81;21202;-62
2021/03/09 16:09:05;;;;;;;14.68;8.40;;;;;;;7.18;44.08;100461.79;2914367;81;21170;-61
2021/03/09 16:13:08;;;;;;;19.12;10.80;;;;;;;7.11;45.46;100458.69;2914374;81;21600;-61
2021/03/09 16:17:11;;;;;;;15.23;7.83;;;;;;;6.99;45.93;100461.16;2914520;81;21154;-61
2021/03/09 16:21:14;;;;;;;14.50;7.97;;;;;;;6.88;46.02;100463.66;2914187;81;21581;-60
2021/03/09 16:25:17;;;;;;;11.65;9.00;;;;;;;6.81;46.08;100457.05;2914355;81;21715;-60
2021/03/09 16:29:20;;;;;;;106.15;56.28;;;;;;;6.74;46.49;100465.00;2914330;81;21148;-60
2021/03/09 16:33:24;;;;;;;324.52;128.55;;;;;;;6.60;47.34;100460.09;2914288;81;21198;-60
2021/03/09 16:37:28;;;;;;;89.13;36.77;;;;;;;6.38;46.88;100470.68;2914484;81;21114;-60
2021/03/09 16:41:32;;;;;;;92.65;36.90;;;;;;;6.18;47.31;100468.41;2914493;81;21142;-61
2021/03/09 16:45:35;;;;;;;432.23;155.70;;;;;;;5.92;48.23;100476.08;2914400;80;21111;-59
2021/03/09 16:49:38;;;;;;;119.80;49.83;;;;;;;5.75;48.76;100470.00;2914106;81;21190;-61
2021/03/09 16:53:42;;;;;;;164.10;69.42;;;;;;;5.57;49.27;100472.77;2896477;81;22202;-60
2021/03/09 16:57:45;;;;;;;147.60;61.40;;;;;;;5.43;49.90;100476.66;2906482;81;21174;-61
2021/03/09 17:01:49;;;;;;;87.20;40.70;;;;;;;5.25;50.45;100480.73;2910107;81;21123;-61
2021/03/09 17:05:53;;;;;;;94.42;44.33;;;;;;;5.08;51.10;100478.18;2908182;81;21150;-62
2021/03/09 17:10:21;;;;;;;38.20;19.92;;;;;;;4.87;51.66;100485.03;2905181;81;21588;-64
2021/03/09 17:14:45;;;;;;;38.65;22.32;;;;;;;4.70;53.04;100485.95;2900086;81;21610;-62
2021/03/09 17:18:53;;;;;;;56.83;31.73;;;;;;;4.51;53.20;100483.44;2860788;82;21145;-62
2021/03/09 17:22:57;;;;;;;39.58;21.37;;;;;;;4.48;52.91;100491.52;2860229;82;21320;-62
2021/03/09 17:27:11;;;;;;;28.38;17.32;;;;;;;4.47;52.57;100493.77;2860302;83;21153;-61
2021/03/09 17:31:15;;;;;;;31.42;21.00;;;;;;;4.42;52.10;100496.64;2877143;82;21164;-60
2021/03/09 17:35:20;;;;;;;29.05;18.80;;;;;;;4.43;51.90;100499.20;2875223;82;21149;-60
2021/03/09 17:39:29;;;;;;;29.05;20.05;;;;;;;4.41;51.78;100498.89;2872990;82;21590;-61
2021/03/09 17:43:32;;;;;;;40.88;22.05;;;;;;;4.33;52.08;100494.05;2872709;81;21168;-61
2021/03/09 17:47:36;;;;;;;32.73;21.65;;;;;;;4.18;52.92;100504.06;2873033;82;21152;-60
2021/03/09 17:51:41;;;;;;;39.05;22.93;;;;;;;4.00;53.81;100504.06;2872946;81;21148;-60
2021/03/09 17:55:44;;;;;;;30.15;20.92;;;;;;;3.86;54.67;100508.72;2870466;82;21638;-60
2021/03/09 17:59:49;;;;;;;38.08;26.50;;;;;;;3.72;55.18;100508.07;2865266;82;21188;-61
2021/03/09 18:03:52;;;;;;;34.58;19.65;;;;;;;3.76;54.92;100508.78;2864652;82;21161;-59
2021/03/09 18:07:55;;;;;;;59.50;34.83;;;;;;;3.72;55.45;100512.02;2864614;83;21330;-60
2021/03/09 18:11:58;;;;;;;376.90;189.07;;;;;;;3.54;56.61;100522.55;2864797;81;21181;-59
2021/03/09 18:16:03;;;;;;;156.00;95.53;;;;;;;3.45;56.36;100523.45;2914692;81;21471;-59
2021/03/09 18:20:08;;;;;;;106.83;56.77;;;;;;;3.47;55.58;100521.13;2914707;81;21155;-60
2021/03/09 18:24:11;;;;;;;70.37;42.00;;;;;;;3.45;55.19;100523.45;2914319;81;21170;-60
2021/03/09 18:28:14;;;;;;;59.80;32.67;;;;;;;3.38;55.44;100530.30;2914704;81;21158;-60
2021/03/09 18:32:19;;;;;;;74.25;47.95;;;;;;;3.26;56.06;100537.48;2826706;83;21163;-61
2021/03/09 18:36:23;;;;;;;138.90;92.25;;;;;;;3.14;56.67;100533.62;2825920;84;21119;-59
2021/03/09 18:40:27;;;;;;;164.35;100.67;;;;;;;3.12;56.88;100536.80;2825992;84;21147;-61
2021/03/09 18:44:32;;;;;;;167.37;105.12;;;;;;;3.09;57.12;100542.20;2825809;82;21625;-60
2021/03/09 18:48:38;;;;;;;149.72;90.38;;;;;;;3.12;57.05;100549.48;2826207;82;21620;-60
2021/03/09 18:52:44;;;;;;;165.35;94.47;;;;;;;3.17;57.27;100537.45;2826029;84;21186;-59
2021/03/09 18:56:51;;;;;;;151.30;83.90;;;;;;;3.19;56.97;100538.23;2825565;83;21202;-59
2021/03/09 19:01:02;;;;;;;147.37;86.40;;;;;;;3.21;56.94;100542.95;2825529;84;21620;-59
2021/03/09 19:05:09;;;;;;;106.12;64.35;;;;;;;3.23;56.88;100542.41;2826260;84;21174;-59